createdAt,value
2022-08-17T00:00:43.601Z,20.58
2022-08-17T00:03:15.187Z,20.53
2022-08-17T00:05:48.498Z,20.51
2022-08-17T00:08:18.924Z,20.50
2022-08-17T00:10:50.140Z,20.48
2022-08-17T00:13:24.185Z,20.50
2022-08-17T00:15:53.949Z,20.43
2022-08-17T00:19:06.395Z,20.51
2022-08-17T00:21:13.440Z,20.51
2022-08-17T00:23:48.995Z,20.50
2022-08-17T00:26:44.242Z,20.48
2022-08-17T00:29:08.964Z,20.48
2022-08-17T00:31:38.398Z,20.46
2022-08-17T00:34:08.893Z,20.46
2022-08-17T00:36:37.992Z,20.42
2022-08-17T00:39:06.816Z,20.40
2022-08-17T00:41:40.094Z,20.38
2022-08-17T00:44:12.396Z,20.37
2022-08-17T00:46:43.193Z,20.34
2022-08-17T00:49:15.760Z,20.31
2022-08-17T00:51:48.061Z,20.30
2022-08-17T00:54:20.668Z,20.28
2022-08-17T00:56:55.236Z,20.29
2022-08-17T00:59:26.901Z,20.22
2022-08-17T01:01:55.278Z,20.21
2022-08-17T01:04:24.236Z,20.18
2022-08-17T01:06:53.232Z,20.17
2022-08-17T01:09:22.388Z,20.17
2022-08-17T01:11:53.162Z,20.15
2022-08-17T01:14:22.476Z,20.14
2022-08-17T01:16:52.360Z,20.12
2022-08-17T01:19:21.777Z,20.12
2022-08-17T01:21:54.016Z,20.12
2022-08-17T01:24:24.133Z,20.12
2022-08-17T01:26:52.829Z,20.12
2022-08-17T01:29:25.856Z,20.10
2022-08-17T01:31:56.492Z,20.08
2022-08-17T01:34:35.100Z,20.05
2022-08-17T01:37:12.692Z,20.04
2022-08-17T01:39:45.942Z,20.04
2022-08-17T01:42:20.060Z,20.03
2022-08-17T01:44:48.948Z,20.00
2022-08-17T01:47:17.742Z,20.00
2022-08-17T01:49:46.204Z,20.00
2022-08-17T01:52:15.292Z,19.98
2022-08-17T01:54:47.259Z,19.98
2022-08-17T01:57:16.424Z,20.00
2022-08-17T01:59:45.249Z,20.01
2022-08-17T02:02:30.573Z,19.99
2022-08-17T02:05:00.244Z,20.01
2022-08-17T02:07:29.187Z,20.03
2022-08-17T02:09:59.625Z,20.04
2022-08-17T02:12:37.624Z,20.02
2022-08-17T02:15:12.489Z,20.02
2022-08-17T02:17:41.847Z,19.99
2022-08-17T02:20:11.856Z,20.00
2022-08-17T02:22:41.619Z,19.90
2022-08-17T02:25:13.684Z,19.87
2022-08-17T02:27:42.408Z,19.85
2022-08-17T02:31:01.409Z,19.87
2022-08-17T02:33:04.239Z,19.88
2022-08-17T02:35:35.016Z,19.90
2022-08-17T02:38:06.175Z,19.91
2022-08-17T02:40:37.418Z,19.95
2022-08-17T02:43:06.452Z,19.93
2022-08-17T02:45:35.485Z,19.95
2022-08-17T02:48:05.461Z,19.97
2022-08-17T02:50:34.548Z,19.99
2022-08-17T02:53:04.759Z,20.02
2022-08-17T02:55:35.602Z,20.12
2022-08-17T02:58:05.858Z,20.19
2022-08-17T03:00:37.187Z,20.20
2022-08-17T03:03:06.995Z,20.25
2022-08-17T03:05:37.125Z,20.23
2022-08-17T03:08:07.098Z,20.23
2022-08-17T03:10:40.167Z,20.21
2022-08-17T03:13:10.318Z,20.16
2022-08-17T03:15:40.763Z,20.10
2022-08-17T03:18:24.638Z,20.01
2022-08-17T03:20:55.331Z,19.95
2022-08-17T03:23:25.589Z,19.97
2022-08-17T03:25:54.950Z,19.96
2022-08-17T03:28:26.324Z,19.87
2022-08-17T03:30:55.235Z,19.87
2022-08-17T03:33:24.005Z,19.89
2022-08-17T03:35:53.249Z,19.86
2022-08-17T03:38:22.136Z,19.86
2022-08-17T03:40:58.527Z,19.90
2022-08-17T03:43:31.082Z,19.89
2022-08-17T03:46:28.402Z,19.85
2022-08-17T03:49:22.071Z,19.86
2022-08-17T03:52:08.454Z,19.81
2022-08-17T03:54:54.718Z,19.91
2022-08-17T03:57:23.446Z,19.89
2022-08-17T03:59:53.925Z,19.98
2022-08-17T04:02:26.074Z,20.07
2022-08-17T04:04:54.619Z,20.22
2022-08-17T04:07:32.099Z,20.32
2022-08-17T04:10:01.138Z,20.40
2022-08-17T04:12:31.453Z,20.44
2022-08-17T04:15:01.671Z,20.46
2022-08-17T04:17:30.783Z,20.43
2022-08-17T04:19:59.490Z,20.38
2022-08-17T04:22:31.204Z,20.49
2022-08-17T04:25:17.466Z,20.61
2022-08-17T04:27:46.337Z,20.70
2022-08-17T04:30:17.176Z,20.86
2022-08-17T04:33:09.852Z,21.02
2022-08-17T04:35:41.411Z,21.38
2022-08-17T04:38:12.089Z,21.66
2022-08-17T04:40:58.408Z,21.85
2022-08-17T04:43:28.369Z,22.10
2022-08-17T04:46:03.067Z,21.99
2022-08-17T04:48:36.973Z,22.00
2022-08-17T04:51:10.182Z,21.91
2022-08-17T04:53:40.505Z,21.77
2022-08-17T04:56:16.104Z,21.73
2022-08-17T04:58:46.292Z,21.77
2022-08-17T05:01:17.623Z,21.92
2022-08-17T05:03:53.392Z,21.95
2022-08-17T05:06:22.301Z,22.16
2022-08-17T05:08:50.907Z,22.34
2022-08-17T05:11:19.789Z,22.44
2022-08-17T05:13:50.457Z,22.45
2022-08-17T05:16:21.875Z,21.95
2022-08-17T05:18:50.982Z,22.06
2022-08-17T05:21:20.671Z,21.73
2022-08-17T05:23:53.960Z,21.89
2022-08-17T05:26:26.925Z,22.05
2022-08-17T05:29:00.401Z,22.09
2022-08-17T05:31:33.139Z,22.09
2022-08-17T05:34:02.034Z,22.30
2022-08-17T05:36:42.368Z,22.22
2022-08-17T05:39:16.881Z,22.32
2022-08-17T05:41:48.493Z,22.10
2022-08-17T05:44:17.985Z,21.84
2022-08-17T05:46:50.630Z,21.78
2022-08-17T05:49:22.608Z,21.77
2022-08-17T05:52:09.796Z,21.70
2022-08-17T05:54:48.602Z,21.58
2022-08-17T05:57:32.896Z,21.79
2022-08-17T06:00:08.480Z,21.65
2022-08-17T06:02:59.121Z,21.90
2022-08-17T06:05:50.621Z,22.00
2022-08-17T06:08:30.390Z,22.22
2022-08-17T06:11:02.002Z,22.71
2022-08-17T06:13:42.884Z,22.99
2022-08-17T06:16:25.946Z,22.92
2022-08-17T06:19:07.929Z,22.69
2022-08-17T06:21:40.542Z,22.79
2022-08-17T06:24:20.423Z,23.11
2022-08-17T06:26:49.892Z,23.43
2022-08-17T06:29:27.137Z,23.51
2022-08-17T06:31:55.591Z,23.90
2022-08-17T06:34:25.713Z,24.32
2022-08-17T06:36:55.875Z,24.80
2022-08-17T06:39:33.926Z,24.96
2022-08-17T06:43:02.055Z,25.26
2022-08-17T06:45:05.315Z,25.78
2022-08-17T06:47:37.907Z,26.23
2022-08-17T06:50:15.651Z,26.56
2022-08-17T06:52:52.589Z,26.81
2022-08-17T06:55:26.333Z,26.83
2022-08-17T06:57:58.739Z,26.67
2022-08-17T07:00:33.631Z,26.77
2022-08-17T07:03:07.134Z,26.96
2022-08-17T07:05:45.635Z,25.98
2022-08-17T07:08:19.605Z,26.24
2022-08-17T07:10:51.182Z,26.36
2022-08-17T07:13:32.698Z,26.39
2022-08-17T07:16:09.325Z,26.53
2022-08-17T07:18:38.056Z,26.48
2022-08-17T07:21:17.974Z,26.71
2022-08-17T07:24:02.351Z,26.78
2022-08-17T07:26:31.022Z,27.23
2022-08-17T07:29:01.107Z,26.96
2022-08-17T07:31:33.579Z,27.62
2022-08-17T07:34:14.611Z,28.54
2022-08-17T07:36:44.736Z,30.14
2022-08-17T07:39:13.525Z,31.57
2022-08-17T07:41:53.047Z,31.92
2022-08-17T07:44:26.394Z,33.35
2022-08-17T07:47:12.910Z,34.45
2022-08-17T07:49:44.782Z,35.42
2022-08-17T07:52:51.409Z,36.04
2022-08-17T07:55:31.872Z,35.56
2022-08-17T07:58:01.929Z,33.72
2022-08-17T08:00:32.004Z,33.07
2022-08-17T08:03:04.919Z,33.02
2022-08-17T08:05:49.870Z,32.93
2022-08-17T08:08:40.905Z,32.94
2022-08-17T08:11:15.408Z,32.28
2022-08-17T08:13:45.879Z,32.34
2022-08-17T08:16:25.132Z,31.92
2022-08-17T08:18:57.793Z,32.18
2022-08-17T08:21:33.287Z,32.29
2022-08-17T08:24:15.665Z,32.46
2022-08-17T08:26:47.922Z,32.51
2022-08-17T08:29:28.470Z,32.20
2022-08-17T08:32:14.991Z,32.33
2022-08-17T08:35:02.314Z,32.45
2022-08-17T08:37:43.179Z,32.54
2022-08-17T08:40:27.046Z,32.57
2022-08-17T08:43:04.648Z,32.58
2022-08-17T08:45:39.762Z,32.62
2022-08-17T08:48:46.073Z,32.74
2022-08-17T08:51:11.974Z,32.94
2022-08-17T08:53:45.974Z,33.22
2022-08-17T08:56:21.450Z,33.40
2022-08-17T08:58:54.829Z,32.93
2022-08-17T09:01:29.785Z,32.69
2022-08-17T09:04:25.733Z,32.40
2022-08-17T09:07:10.188Z,31.93
2022-08-17T09:09:46.276Z,31.46
2022-08-17T09:12:22.881Z,31.18
2022-08-17T09:14:57.011Z,31.72
2022-08-17T09:17:32.679Z,32.71
2022-08-17T09:20:05.432Z,33.01
2022-08-17T09:22:38.458Z,32.51
2022-08-17T09:25:11.262Z,33.13
2022-08-17T09:27:50.020Z,33.53
2022-08-17T09:30:19.600Z,32.98
2022-08-17T09:32:55.378Z,34.38
2022-08-17T09:35:33.773Z,36.62
2022-08-17T09:38:17.633Z,38.22
2022-08-17T09:40:50.973Z,36.40
2022-08-17T09:43:30.670Z,34.12
2022-08-17T09:46:00.338Z,33.37
2022-08-17T09:48:30.038Z,35.26
2022-08-17T09:51:05.843Z,36.23
2022-08-17T09:53:37.325Z,35.07
2022-08-17T09:56:28.479Z,34.35
2022-08-17T09:59:22.564Z,38.00
2022-08-17T10:01:57.141Z,39.00
2022-08-17T10:04:37.870Z,39.06
2022-08-17T10:07:11.612Z,39.64
2022-08-17T10:09:48.936Z,40.49
2022-08-17T10:12:29.933Z,39.85
2022-08-17T10:15:19.175Z,39.07
2022-08-17T10:18:03.970Z,41.87
2022-08-17T10:20:38.071Z,45.66
2022-08-17T10:23:29.560Z,46.55
2022-08-17T10:26:14.226Z,44.04
2022-08-17T10:28:48.394Z,45.75
2022-08-17T10:31:35.963Z,47.26
2022-08-17T10:34:20.314Z,48.39
2022-08-17T10:36:54.799Z,46.31
2022-08-17T10:39:30.671Z,43.21
2022-08-17T10:42:04.921Z,41.08
2022-08-17T10:44:42.544Z,39.24
2022-08-17T10:47:15.478Z,36.97
2022-08-17T10:49:48.027Z,37.09
2022-08-17T10:52:48.563Z,39.39
2022-08-17T10:55:20.123Z,43.93
2022-08-17T10:57:50.818Z,46.66
2022-08-17T11:01:12.922Z,49.02
2022-08-17T11:03:54.938Z,50.67
2022-08-17T11:06:33.515Z,51.12
2022-08-17T11:09:21.696Z,49.92
2022-08-17T11:12:09.297Z,49.93
2022-08-17T11:14:48.632Z,51.55
2022-08-17T11:17:30.511Z,52.03
2022-08-17T11:20:15.288Z,52.73
2022-08-17T11:23:14.742Z,52.62
2022-08-17T11:25:45.114Z,52.76
2022-08-17T11:28:17.971Z,52.70
2022-08-17T11:30:52.103Z,51.98
2022-08-17T11:33:52.496Z,52.37
2022-08-17T11:36:32.337Z,52.48
2022-08-17T11:39:06.201Z,50.91
2022-08-17T11:41:40.548Z,51.71
2022-08-17T11:44:26.868Z,53.25
2022-08-17T11:47:26.738Z,54.22
2022-08-17T11:50:41.821Z,53.92
2022-08-17T11:54:03.524Z,52.88
2022-08-17T11:56:44.673Z,49.86
2022-08-17T11:59:50.631Z,49.65
2022-08-17T12:02:39.019Z,49.56
2022-08-17T12:05:28.442Z,45.76
2022-08-17T12:08:07.231Z,42.64
2022-08-17T12:10:49.922Z,40.00
2022-08-17T12:13:19.861Z,37.95
2022-08-17T12:15:50.626Z,36.65
2022-08-17T12:18:24.645Z,35.65
2022-08-17T12:21:12.230Z,34.99
2022-08-17T12:23:44.590Z,34.90
2022-08-17T12:26:19.578Z,39.59
2022-08-17T12:28:49.364Z,43.39
2022-08-17T12:31:24.672Z,47.44
2022-08-17T12:33:54.231Z,50.19
2022-08-17T12:36:25.943Z,51.55
2022-08-17T12:38:59.674Z,50.08
2022-08-17T12:41:47.152Z,49.23
2022-08-17T12:44:18.293Z,50.10
2022-08-17T12:46:50.734Z,49.73
2022-08-17T12:49:26.585Z,50.02
2022-08-17T12:52:02.168Z,48.91
2022-08-17T12:54:39.313Z,49.00
2022-08-17T12:57:13.787Z,49.13
2022-08-17T12:59:45.194Z,50.22
2022-08-17T13:02:22.236Z,46.04
2022-08-17T13:04:50.771Z,45.04
2022-08-17T13:07:33.988Z,45.04
2022-08-17T13:10:02.984Z,45.99
2022-08-17T13:12:34.042Z,47.76
2022-08-17T13:15:03.016Z,48.97
2022-08-17T13:17:36.074Z,50.01
2022-08-17T13:20:07.010Z,49.43
2022-08-17T13:22:35.371Z,47.72
2022-08-17T13:25:07.492Z,45.95
2022-08-17T13:27:38.422Z,43.52
2022-08-17T13:30:12.891Z,39.95
2022-08-17T13:32:45.028Z,37.77
2022-08-17T13:35:39.386Z,36.40
2022-08-17T13:38:11.424Z,37.00
2022-08-17T13:40:49.165Z,37.23
2022-08-17T13:43:48.654Z,37.94
2022-08-17T13:46:21.979Z,39.29
2022-08-17T13:49:00.317Z,40.07
2022-08-17T13:51:32.758Z,41.51
2022-08-17T13:54:07.858Z,42.33
2022-08-17T13:56:40.920Z,42.30
2022-08-17T13:59:13.871Z,42.40
2022-08-17T14:01:47.442Z,41.88
2022-08-17T14:04:24.982Z,41.15
2022-08-17T14:06:59.958Z,41.54
2022-08-17T14:09:34.890Z,41.72
2022-08-17T14:12:08.647Z,42.01
2022-08-17T14:14:38.878Z,42.09
2022-08-17T14:17:07.897Z,42.66
2022-08-17T14:19:36.845Z,43.57
2022-08-17T14:22:06.462Z,44.11
2022-08-17T14:24:40.000Z,44.05
2022-08-17T14:27:12.130Z,42.92
2022-08-17T14:29:42.686Z,42.42
2022-08-17T14:32:19.258Z,41.24
2022-08-17T14:34:49.654Z,40.06
2022-08-17T14:37:18.713Z,40.11
2022-08-17T14:39:47.586Z,40.03
2022-08-17T14:42:18.589Z,40.11
2022-08-17T14:44:48.779Z,40.48
2022-08-17T14:47:17.596Z,40.40
2022-08-17T14:49:48.467Z,40.33
2022-08-17T14:52:21.931Z,39.94
2022-08-17T14:54:52.396Z,39.94
2022-08-17T14:57:33.196Z,40.16
2022-08-17T15:00:05.238Z,39.84
2022-08-17T15:02:45.597Z,39.25
2022-08-17T15:05:15.756Z,38.42
2022-08-17T15:07:44.719Z,37.82
2022-08-17T15:10:13.457Z,36.89
2022-08-17T15:12:42.394Z,36.77
2022-08-17T15:15:15.120Z,36.76
2022-08-17T15:17:45.917Z,36.32
2022-08-17T15:20:17.170Z,36.15
2022-08-17T15:22:46.546Z,35.63
2022-08-17T15:25:15.776Z,35.14
2022-08-17T15:27:44.600Z,34.97
2022-08-17T15:30:15.719Z,35.08
2022-08-17T15:32:50.864Z,34.92
2022-08-17T15:35:27.068Z,35.21
2022-08-17T15:38:04.913Z,35.52
2022-08-17T15:40:38.060Z,35.58
2022-08-17T15:43:07.541Z,35.58
2022-08-17T15:45:37.702Z,35.65
2022-08-17T15:48:07.004Z,35.73
2022-08-17T15:50:36.245Z,35.68
2022-08-17T15:53:05.547Z,35.53
2022-08-17T15:55:34.555Z,35.03
2022-08-17T15:58:03.430Z,34.68
2022-08-17T16:00:36.432Z,33.98
2022-08-17T16:03:57.342Z,33.68
2022-08-17T16:06:12.197Z,32.98
2022-08-17T16:08:43.826Z,32.62
2022-08-17T16:11:13.873Z,32.51
2022-08-17T16:13:42.087Z,32.41
2022-08-17T16:16:20.709Z,32.39
2022-08-17T16:18:54.705Z,32.75
2022-08-17T16:21:42.932Z,33.11
2022-08-17T16:24:13.232Z,33.43
2022-08-17T16:26:42.476Z,33.56
2022-08-17T16:29:11.586Z,33.76
2022-08-17T16:31:41.958Z,34.70
2022-08-17T16:34:17.045Z,35.78
2022-08-17T16:36:55.741Z,36.85
2022-08-17T16:39:29.204Z,37.78
2022-08-17T16:41:58.556Z,38.59
2022-08-17T16:44:29.101Z,39.53
2022-08-17T16:46:58.370Z,39.57
2022-08-17T16:49:37.465Z,38.74
2022-08-17T16:52:10.460Z,37.68
2022-08-17T16:54:43.919Z,36.38
2022-08-17T16:57:13.669Z,35.11
2022-08-17T16:59:47.839Z,33.22
2022-08-17T17:02:17.598Z,31.69
2022-08-17T17:04:52.189Z,30.71
2022-08-17T17:07:53.434Z,29.94
2022-08-17T17:10:24.720Z,29.26
2022-08-17T17:13:02.006Z,28.68
2022-08-17T17:15:43.196Z,28.42
2022-08-17T17:18:12.230Z,28.59
2022-08-17T17:20:47.519Z,28.55
2022-08-17T17:23:25.077Z,28.25
2022-08-17T17:26:06.655Z,27.85
2022-08-17T17:28:43.536Z,27.65
2022-08-17T17:31:16.360Z,27.33
2022-08-17T17:33:48.431Z,27.00
2022-08-17T17:36:26.697Z,26.63
2022-08-17T17:39:00.251Z,26.33
2022-08-17T17:41:32.058Z,26.06
2022-08-17T17:44:04.444Z,25.86
2022-08-17T17:46:35.479Z,25.63
2022-08-17T17:49:04.736Z,25.49
2022-08-17T17:52:03.668Z,25.45
2022-08-17T17:54:38.300Z,25.36
2022-08-17T17:57:12.227Z,25.25
2022-08-17T17:59:46.455Z,25.14
2022-08-17T18:02:39.714Z,25.07
2022-08-17T18:05:17.626Z,24.95
2022-08-17T18:07:53.295Z,24.84
2022-08-17T18:10:30.068Z,24.75
2022-08-17T18:13:11.514Z,24.71
2022-08-17T18:15:51.142Z,24.63
2022-08-17T18:18:37.859Z,24.53
2022-08-17T18:21:16.787Z,24.48
2022-08-17T18:23:54.998Z,24.42
2022-08-17T18:26:55.095Z,24.40
2022-08-17T18:29:42.413Z,24.35
2022-08-17T18:32:29.724Z,24.28
2022-08-17T18:35:01.489Z,24.20
2022-08-17T18:37:48.865Z,24.13
2022-08-17T18:40:37.737Z,24.10
2022-08-17T18:43:11.216Z,24.03
2022-08-17T18:45:44.051Z,23.98
2022-08-17T18:48:21.722Z,23.95
2022-08-17T18:50:51.458Z,23.93
2022-08-17T18:53:33.512Z,23.90
2022-08-17T18:56:34.058Z,23.88
2022-08-17T18:59:17.930Z,23.86
2022-08-17T19:02:05.145Z,23.79
2022-08-17T19:04:41.480Z,23.74
2022-08-17T19:07:25.155Z,23.74
2022-08-17T19:09:58.258Z,23.71
2022-08-17T19:12:32.310Z,23.68
2022-08-17T19:15:01.537Z,23.66
2022-08-17T19:17:41.277Z,23.61
2022-08-17T19:20:16.138Z,23.59
2022-08-17T19:22:55.645Z,23.54
2022-08-17T19:25:28.185Z,23.50
2022-08-17T19:28:03.546Z,23.51
2022-08-17T19:30:32.916Z,23.51
2022-08-17T19:33:02.992Z,23.50
2022-08-17T19:35:42.217Z,23.50
2022-08-17T19:38:19.273Z,23.45
2022-08-17T19:40:58.701Z,23.41
2022-08-17T19:43:35.053Z,23.41
2022-08-17T19:46:11.941Z,23.38
2022-08-17T19:48:46.677Z,23.31
2022-08-17T19:51:21.241Z,23.26
2022-08-17T19:54:05.532Z,23.19
2022-08-17T19:56:41.187Z,23.13
2022-08-17T19:59:15.274Z,23.01
2022-08-17T20:01:47.935Z,22.85
2022-08-17T20:04:22.662Z,22.69
2022-08-17T20:07:04.936Z,22.63
2022-08-17T20:12:08.045Z,22.48
2022-08-17T20:14:53.388Z,22.49
2022-08-17T20:17:28.360Z,22.47
2022-08-17T20:20:03.540Z,22.39
2022-08-17T20:22:49.656Z,22.37
2022-08-17T20:25:30.249Z,22.31
2022-08-17T20:28:05.716Z,22.27
2022-08-17T20:30:39.271Z,22.23
2022-08-17T20:33:12.490Z,22.24
2022-08-17T20:36:02.548Z,22.17
2022-08-17T20:38:40.957Z,22.12
2022-08-17T20:41:15.760Z,22.11
2022-08-17T20:43:49.100Z,22.07
2022-08-17T20:46:28.252Z,22.06
2022-08-17T20:48:59.042Z,22.07
2022-08-17T20:51:32.206Z,22.05
2022-08-17T20:54:09.572Z,22.01
2022-08-17T20:56:49.717Z,22.02
2022-08-17T20:59:56.400Z,22.06
2022-08-17T21:02:28.481Z,22.10
2022-08-17T21:05:04.049Z,22.11
2022-08-17T21:07:59.934Z,22.18
2022-08-17T21:10:38.004Z,22.22
2022-08-17T21:13:30.735Z,22.24
2022-08-17T21:16:02.531Z,22.25
2022-08-17T21:18:38.686Z,22.30
2022-08-17T21:21:19.355Z,22.35
2022-08-17T21:23:59.603Z,22.35
2022-08-17T21:26:32.839Z,22.35
2022-08-17T21:29:29.774Z,22.38
2022-08-17T21:32:24.208Z,22.41
2022-08-17T21:35:27.380Z,22.43
2022-08-17T21:38:03.701Z,22.34
2022-08-17T21:40:34.569Z,22.26
2022-08-17T21:43:09.171Z,22.25
2022-08-17T21:45:41.338Z,22.23
2022-08-17T21:48:14.896Z,22.18
2022-08-17T21:50:48.716Z,22.15
2022-08-17T21:53:27.046Z,22.08
2022-08-17T21:55:59.305Z,21.98
2022-08-17T21:58:30.955Z,21.94
2022-08-17T22:01:15.210Z,21.90
2022-08-17T22:03:43.990Z,21.85
2022-08-17T22:06:27.743Z,21.81
2022-08-17T22:09:05.745Z,21.79
2022-08-17T22:11:52.625Z,21.75
2022-08-17T22:14:22.650Z,21.71
2022-08-17T22:17:07.691Z,21.66
2022-08-17T22:19:36.937Z,21.59
2022-08-17T22:22:08.546Z,21.55
2022-08-17T22:24:37.983Z,21.49
2022-08-17T22:27:11.718Z,21.49
2022-08-17T22:29:59.067Z,21.46
2022-08-17T22:32:38.077Z,21.41
2022-08-17T22:35:37.505Z,21.36
2022-08-17T22:38:31.033Z,21.31
2022-08-17T22:41:16.704Z,21.28
2022-08-17T22:43:45.737Z,21.23
2022-08-17T22:46:15.084Z,21.19
2022-08-17T22:48:49.320Z,21.16
2022-08-17T22:51:20.957Z,21.12
2022-08-17T22:54:10.689Z,21.09
2022-08-17T22:56:57.235Z,21.07
2022-08-17T22:59:44.977Z,21.04
2022-08-17T23:02:20.471Z,21.03
2022-08-17T23:04:52.513Z,21.02
2022-08-17T23:07:22.041Z,20.99
2022-08-17T23:09:53.164Z,20.95
2022-08-17T23:12:26.509Z,20.94
2022-08-17T23:15:00.718Z,20.94
2022-08-17T23:17:33.849Z,20.93
2022-08-17T23:20:08.512Z,20.92
2022-08-17T23:22:37.859Z,20.91
2022-08-17T23:25:28.037Z,20.89
2022-08-17T23:27:58.558Z,20.87
2022-08-17T23:30:28.595Z,20.86
2022-08-17T23:32:59.627Z,20.80
2022-08-17T23:35:40.149Z,20.77
2022-08-17T23:38:09.906Z,20.78
2022-08-17T23:40:40.901Z,20.76
2022-08-17T23:43:23.665Z,20.73
2022-08-17T23:45:55.145Z,20.72
2022-08-17T23:48:34.973Z,20.71
2022-08-17T23:51:12.234Z,20.71
2022-08-17T23:53:46.286Z,20.69
2022-08-17T23:56:18.703Z,20.67
2022-08-17T23:58:47.153Z,20.63
